Lakeland, New Jersey
Current Conditions -  °F | °C
As of 12:54 AM on Monday 22 Dec 2014 (Local Time) from KPHL Reporting Station
Scattered Clouds Scattered Clouds  
Wind Chill: 29°   Ceiling: Unl
Heat Index: 29°   Visibility: 10mi
Dew Point: 21°   Wind: 3mph
Humidity: 72%   Direction: 340°NNW
Pressure: 30.32"   Gusts: NA
Location:  39.778°N, 75.0552°W
Report Text: KPHL 220554Z 34003KT 10SM FEW050 SCT250 M02/M06 A3032 RMK AO2 SLP268 T10171061 10017 21022 58008
Loading
Personal Weather Stations






























Interactive Weather Map New forecast layout! Learn more

10-Day Weather Forecast

Advertisements
Track Severe Weather on mobile